sensor_id;sensor_type;location;lat;lon;timestamp;temperature;humidity
10802;DHT22;5453;50.852;7.102;2023-05-16T00:00:52;13.60;99.90
10802;DHT22;5453;50.852;7.102;2023-05-16T00:03:24;13.60;99.90
10802;DHT22;5453;50.852;7.102;2023-05-16T00:05:57;13.60;99.90
10802;DHT22;5453;50.852;7.102;2023-05-16T00:08:32;13.60;99.90
10802;DHT22;5453;50.852;7.102;2023-05-16T00:11:04;13.50;99.90
10802;DHT22;5453;50.852;7.102;2023-05-16T00:13:36;13.50;99.90
10802;DHT22;5453;50.852;7.102;2023-05-16T00:16:08;13.50;99.90
10802;DHT22;5453;50.852;7.102;2023-05-16T00:18:41;13.50;99.90
10802;DHT22;5453;50.852;7.102;2023-05-16T00:21:16;13.40;99.90
10802;DHT22;5453;50.852;7.102;2023-05-16T00:23:48;13.30;99.90
10802;DHT22;5453;50.852;7.102;2023-05-16T00:26:20;13.30;99.90
10802;DHT22;5453;50.852;7.102;2023-05-16T00:28:53;13.20;99.90
10802;DHT22;5453;50.852;7.102;2023-05-16T00:31:25;13.20;99.90
10802;DHT22;5453;50.852;7.102;2023-05-16T00:33:57;13.20;99.90
10802;DHT22;5453;50.852;7.102;2023-05-16T00:36:31;13.10;99.90
10802;DHT22;5453;50.852;7.102;2023-05-16T00:39:05;13.10;99.90
10802;DHT22;5453;50.852;7.102;2023-05-16T00:41:37;13.10;99.90
10802;DHT22;5453;50.852;7.102;2023-05-16T00:44:10;13.10;99.90
10802;DHT22;5453;50.852;7.102;2023-05-16T00:46:44;13.10;99.90
10802;DHT22;5453;50.852;7.102;2023-05-16T00:49:16;13.10;99.90
10802;DHT22;5453;50.852;7.102;2023-05-16T00:51:50;13.00;99.90
10802;DHT22;5453;50.852;7.102;2023-05-16T00:54:24;13.00;99.90
10802;DHT22;5453;50.852;7.102;2023-05-16T00:56:59;13.00;99.90
10802;DHT22;5453;50.852;7.102;2023-05-16T00:59:33;13.00;99.90
10802;DHT22;5453;50.852;7.102;2023-05-16T01:02:05;12.90;99.90
10802;DHT22;5453;50.852;7.102;2023-05-16T01:04:39;12.90;99.90
10802;DHT22;5453;50.852;7.102;2023-05-16T01:07:14;12.90;99.90
10802;DHT22;5453;50.852;7.102;2023-05-16T01:09:47;12.90;99.90
10802;DHT22;5453;50.852;7.102;2023-05-16T01:12:25;12.90;99.90
10802;DHT22;5453;50.852;7.102;2023-05-16T01:15:06;12.90;99.90
10802;DHT22;5453;50.852;7.102;2023-05-16T01:17:52;12.90;99.90
10802;DHT22;5453;50.852;7.102;2023-05-16T01:20:34;12.80;99.90
10802;DHT22;5453;50.852;7.102;2023-05-16T01:23:19;12.80;99.90
10802;DHT22;5453;50.852;7.102;2023-05-16T01:26:16;12.80;99.90
10802;DHT22;5453;50.852;7.102;2023-05-16T01:28:50;12.80;99.90
10802;DHT22;5453;50.852;7.102;2023-05-16T01:31:23;12.80;99.90
10802;DHT22;5453;50.852;7.102;2023-05-16T01:33:55;12.80;99.90
10802;DHT22;5453;50.852;7.102;2023-05-16T01:36:32;12.80;99.90
10802;DHT22;5453;50.852;7.102;2023-05-16T01:39:10;12.70;99.90
10802;DHT22;5453;50.852;7.102;2023-05-16T01:41:52;12.70;99.90
10802;DHT22;5453;50.852;7.102;2023-05-16T01:44:31;12.70;99.90
10802;DHT22;5453;50.852;7.102;2023-05-16T01:47:11;12.60;99.90
10802;DHT22;5453;50.852;7.102;2023-05-16T01:49:50;12.60;99.90
10802;DHT22;5453;50.852;7.102;2023-05-16T01:52:31;12.60;99.90
10802;DHT22;5453;50.852;7.102;2023-05-16T01:55:10;12.50;99.90
10802;DHT22;5453;50.852;7.102;2023-05-16T01:57:48;12.50;99.90
10802;DHT22;5453;50.852;7.102;2023-05-16T02:00:21;12.40;99.90
10802;DHT22;5453;50.852;7.102;2023-05-16T02:02:54;12.40;99.90
10802;DHT22;5453;50.852;7.102;2023-05-16T02:05:26;12.40;99.90
10802;DHT22;5453;50.852;7.102;2023-05-16T02:08:00;12.40;99.90
10802;DHT22;5453;50.852;7.102;2023-05-16T02:10:32;12.30;99.90
10802;DHT22;5453;50.852;7.102;2023-05-16T02:13:06;12.30;99.90
10802;DHT22;5453;50.852;7.102;2023-05-16T02:15:39;12.30;99.90
10802;DHT22;5453;50.852;7.102;2023-05-16T02:18:13;12.30;99.90
10802;DHT22;5453;50.852;7.102;2023-05-16T02:20:47;12.30;99.90
10802;DHT22;5453;50.852;7.102;2023-05-16T02:23:19;12.20;99.90
10802;DHT22;5453;50.852;7.102;2023-05-16T02:25:52;12.20;99.90
10802;DHT22;5453;50.852;7.102;2023-05-16T02:28:28;12.20;99.90
10802;DHT22;5453;50.852;7.102;2023-05-16T02:31:00;12.20;99.90
10802;DHT22;5453;50.852;7.102;2023-05-16T02:33:32;12.20;99.90
10802;DHT22;5453;50.852;7.102;2023-05-16T02:36:06;12.20;99.90
10802;DHT22;5453;50.852;7.102;2023-05-16T02:38:38;12.20;99.90
10802;DHT22;5453;50.852;7.102;2023-05-16T02:41:11;12.10;99.90
10802;DHT22;5453;50.852;7.102;2023-05-16T02:43:45;12.10;99.90
10802;DHT22;5453;50.852;7.102;2023-05-16T02:46:22;12.00;99.90
10802;DHT22;5453;50.852;7.102;2023-05-16T02:48:55;12.00;99.90
10802;DHT22;5453;50.852;7.102;2023-05-16T02:51:28;11.90;99.90
10802;DHT22;5453;50.852;7.102;2023-05-16T02:54:01;11.90;99.90
10802;DHT22;5453;50.852;7.102;2023-05-16T02:56:33;11.80;99.90
10802;DHT22;5453;50.852;7.102;2023-05-16T02:59:08;11.80;99.90
10802;DHT22;5453;50.852;7.102;2023-05-16T03:01:40;11.70;99.90
10802;DHT22;5453;50.852;7.102;2023-05-16T03:04:12;11.70;99.90
10802;DHT22;5453;50.852;7.102;2023-05-16T03:06:44;11.60;99.90
10802;DHT22;5453;50.852;7.102;2023-05-16T03:09:17;11.60;99.90
10802;DHT22;5453;50.852;7.102;2023-05-16T03:11:49;11.60;99.90
10802;DHT22;5453;50.852;7.102;2023-05-16T03:14:25;11.50;99.90
10802;DHT22;5453;50.852;7.102;2023-05-16T03:16:58;11.50;99.90
10802;DHT22;5453;50.852;7.102;2023-05-16T03:19:30;11.50;99.90
10802;DHT22;5453;50.852;7.102;2023-05-16T03:22:04;11.40;99.90
10802;DHT22;5453;50.852;7.102;2023-05-16T03:24:37;11.30;99.90
10802;DHT22;5453;50.852;7.102;2023-05-16T03:27:10;11.20;99.90
10802;DHT22;5453;50.852;7.102;2023-05-16T03:29:43;11.20;99.90
10802;DHT22;5453;50.852;7.102;2023-05-16T03:32:17;11.20;99.90
10802;DHT22;5453;50.852;7.102;2023-05-16T03:34:49;11.20;99.90
10802;DHT22;5453;50.852;7.102;2023-05-16T03:37:21;11.20;99.90
10802;DHT22;5453;50.852;7.102;2023-05-16T03:39:53;11.20;99.90
10802;DHT22;5453;50.852;7.102;2023-05-16T03:42:25;11.20;99.90
10802;DHT22;5453;50.852;7.102;2023-05-16T03:44:59;11.20;99.90
10802;DHT22;5453;50.852;7.102;2023-05-16T03:47:31;11.10;99.90
10802;DHT22;5453;50.852;7.102;2023-05-16T03:50:04;11.20;99.90
10802;DHT22;5453;50.852;7.102;2023-05-16T03:52:37;11.10;99.90
10802;DHT22;5453;50.852;7.102;2023-05-16T03:55:10;11.20;99.90
10802;DHT22;5453;50.852;7.102;2023-05-16T03:57:45;11.20;99.90
10802;DHT22;5453;50.852;7.102;2023-05-16T04:00:20;11.20;99.90
10802;DHT22;5453;50.852;7.102;2023-05-16T04:02:52;11.20;99.90
10802;DHT22;5453;50.852;7.102;2023-05-16T04:05:24;11.20;99.90
10802;DHT22;5453;50.852;7.102;2023-05-16T04:07:57;11.20;99.90
10802;DHT22;5453;50.852;7.102;2023-05-16T04:10:29;11.30;99.90
10802;DHT22;5453;50.852;7.102;2023-05-16T04:13:01;11.20;99.90
10802;DHT22;5453;50.852;7.102;2023-05-16T04:15:35;11.20;99.90
10802;DHT22;5453;50.852;7.102;2023-05-16T04:18:08;11.20;99.90
10802;DHT22;5453;50.852;7.102;2023-05-16T04:20:41;11.20;99.90
10802;DHT22;5453;50.852;7.102;2023-05-16T04:23:13;11.20;99.90
10802;DHT22;5453;50.852;7.102;2023-05-16T04:25:46;11.20;99.90
10802;DHT22;5453;50.852;7.102;2023-05-16T04:28:19;11.20;99.90
10802;DHT22;5453;50.852;7.102;2023-05-16T04:30:53;11.10;99.90
10802;DHT22;5453;50.852;7.102;2023-05-16T04:33:25;11.10;99.90
10802;DHT22;5453;50.852;7.102;2023-05-16T04:35:58;11.10;99.90
10802;DHT22;5453;50.852;7.102;2023-05-16T04:38:30;11.00;99.90
10802;DHT22;5453;50.852;7.102;2023-05-16T04:41:03;11.00;99.90
10802;DHT22;5453;50.852;7.102;2023-05-16T04:43:35;11.00;99.90
10802;DHT22;5453;50.852;7.102;2023-05-16T04:46:09;11.00;99.90
10802;DHT22;5453;50.852;7.102;2023-05-16T04:48:41;11.00;99.90
10802;DHT22;5453;50.852;7.102;2023-05-16T04:51:13;11.00;99.90
10802;DHT22;5453;50.852;7.102;2023-05-16T04:53:46;11.00;99.90
10802;DHT22;5453;50.852;7.102;2023-05-16T04:56:18;10.90;99.90
10802;DHT22;5453;50.852;7.102;2023-05-16T04:58:50;10.90;99.90
10802;DHT22;5453;50.852;7.102;2023-05-16T05:01:24;10.90;99.90
10802;DHT22;5453;50.852;7.102;2023-05-16T05:03:56;10.90;99.90
10802;DHT22;5453;50.852;7.102;2023-05-16T05:06:28;10.90;99.90
10802;DHT22;5453;50.852;7.102;2023-05-16T05:09:01;10.80;99.90
10802;DHT22;5453;50.852;7.102;2023-05-16T05:11:35;10.80;99.90
10802;DHT22;5453;50.852;7.102;2023-05-16T05:14:07;10.80;99.90
10802;DHT22;5453;50.852;7.102;2023-05-16T05:16:40;10.70;99.90
10802;DHT22;5453;50.852;7.102;2023-05-16T05:19:13;10.70;99.90
10802;DHT22;5453;50.852;7.102;2023-05-16T05:21:46;10.80;99.90
10802;DHT22;5453;50.852;7.102;2023-05-16T05:24:18;10.70;99.90
10802;DHT22;5453;50.852;7.102;2023-05-16T05:26:50;10.70;99.90
10802;DHT22;5453;50.852;7.102;2023-05-16T05:29:22;10.70;99.90
10802;DHT22;5453;50.852;7.102;2023-05-16T05:31:55;10.70;99.90
10802;DHT22;5453;50.852;7.102;2023-05-16T05:34:27;10.70;99.90
10802;DHT22;5453;50.852;7.102;2023-05-16T05:37:00;10.70;99.90
10802;DHT22;5453;50.852;7.102;2023-05-16T05:39:32;10.70;99.90
10802;DHT22;5453;50.852;7.102;2023-05-16T05:42:05;10.70;99.90
10802;DHT22;5453;50.852;7.102;2023-05-16T05:44:37;10.80;99.90
10802;DHT22;5453;50.852;7.102;2023-05-16T05:47:11;10.80;99.90
10802;DHT22;5453;50.852;7.102;2023-05-16T05:49:45;10.80;99.90
10802;DHT22;5453;50.852;7.102;2023-05-16T05:52:19;10.80;99.90
10802;DHT22;5453;50.852;7.102;2023-05-16T05:54:51;10.80;99.90
10802;DHT22;5453;50.852;7.102;2023-05-16T05:57:24;10.90;99.90
10802;DHT22;5453;50.852;7.102;2023-05-16T05:59:56;11.00;99.90
10802;DHT22;5453;50.852;7.102;2023-05-16T06:02:30;11.10;99.90
10802;DHT22;5453;50.852;7.102;2023-05-16T06:05:03;11.30;99.90
10802;DHT22;5453;50.852;7.102;2023-05-16T06:07:36;11.40;99.90
10802;DHT22;5453;50.852;7.102;2023-05-16T06:10:08;11.60;99.90
10802;DHT22;5453;50.852;7.102;2023-05-16T06:12:40;11.80;99.90
10802;DHT22;5453;50.852;7.102;2023-05-16T06:15:12;11.90;99.90
10802;DHT22;5453;50.852;7.102;2023-05-16T06:17:46;11.80;99.90
10802;DHT22;5453;50.852;7.102;2023-05-16T06:20:18;11.80;99.90
10802;DHT22;5453;50.852;7.102;2023-05-16T06:22:50;11.90;99.90
10802;DHT22;5453;50.852;7.102;2023-05-16T06:25:22;12.00;99.90
10802;DHT22;5453;50.852;7.102;2023-05-16T06:27:55;12.20;99.90
10802;DHT22;5453;50.852;7.102;2023-05-16T06:30:27;12.40;99.90
10802;DHT22;5453;50.852;7.102;2023-05-16T06:33:00;12.60;99.90
10802;DHT22;5453;50.852;7.102;2023-05-16T06:35:32;12.80;99.90
10802;DHT22;5453;50.852;7.102;2023-05-16T06:38:04;13.00;99.90
10802;DHT22;5453;50.852;7.102;2023-05-16T06:40:36;13.10;99.90
10802;DHT22;5453;50.852;7.102;2023-05-16T06:43:08;13.20;99.90
10802;DHT22;5453;50.852;7.102;2023-05-16T06:45:41;13.30;99.90
10802;DHT22;5453;50.852;7.102;2023-05-16T06:48:14;13.50;99.90
10802;DHT22;5453;50.852;7.102;2023-05-16T06:50:48;13.60;99.90
10802;DHT22;5453;50.852;7.102;2023-05-16T06:53:21;13.70;99.90
10802;DHT22;5453;50.852;7.102;2023-05-16T06:55:54;13.70;99.90
10802;DHT22;5453;50.852;7.102;2023-05-16T06:58:26;13.80;99.90
10802;DHT22;5453;50.852;7.102;2023-05-16T07:00:58;14.10;99.90
10802;DHT22;5453;50.852;7.102;2023-05-16T07:03:32;14.50;99.90
10802;DHT22;5453;50.852;7.102;2023-05-16T07:06:04;14.70;99.90
10802;DHT22;5453;50.852;7.102;2023-05-16T07:08:36;15.00;99.90
10802;DHT22;5453;50.852;7.102;2023-05-16T07:11:08;15.30;99.90
10802;DHT22;5453;50.852;7.102;2023-05-16T07:13:41;15.50;99.90
10802;DHT22;5453;50.852;7.102;2023-05-16T07:16:13;15.80;99.90
10802;DHT22;5453;50.852;7.102;2023-05-16T07:18:46;16.00;99.90
10802;DHT22;5453;50.852;7.102;2023-05-16T07:21:18;16.30;99.90
10802;DHT22;5453;50.852;7.102;2023-05-16T07:23:51;16.30;99.90
10802;DHT22;5453;50.852;7.102;2023-05-16T07:26:23;16.10;99.60
10802;DHT22;5453;50.852;7.102;2023-05-16T07:28:56;15.90;99.80
10802;DHT22;5453;50.852;7.102;2023-05-16T07:31:28;15.80;99.90
10802;DHT22;5453;50.852;7.102;2023-05-16T07:34:02;15.70;99.40
10802;DHT22;5453;50.852;7.102;2023-05-16T07:36:34;15.80;99.60
10802;DHT22;5453;50.852;7.102;2023-05-16T07:39:06;15.90;99.50
10802;DHT22;5453;50.852;7.102;2023-05-16T07:41:38;16.00;99.60
10802;DHT22;5453;50.852;7.102;2023-05-16T07:44:10;16.20;99.20
10802;DHT22;5453;50.852;7.102;2023-05-16T07:46:42;16.40;98.70
10802;DHT22;5453;50.852;7.102;2023-05-16T07:49:16;16.60;99.90
10802;DHT22;5453;50.852;7.102;2023-05-16T07:51:48;16.70;97.70
10802;DHT22;5453;50.852;7.102;2023-05-16T07:54:20;16.50;95.40
10802;DHT22;5453;50.852;7.102;2023-05-16T07:56:52;16.50;95.60
10802;DHT22;5453;50.852;7.102;2023-05-16T07:59:24;16.50;95.70
10802;DHT22;5453;50.852;7.102;2023-05-16T08:01:56;16.70;95.30
10802;DHT22;5453;50.852;7.102;2023-05-16T08:04:30;16.80;94.80
10802;DHT22;5453;50.852;7.102;2023-05-16T08:07:02;17.00;92.90
10802;DHT22;5453;50.852;7.102;2023-05-16T08:09:34;17.10;92.00
10802;DHT22;5453;50.852;7.102;2023-05-16T08:12:07;17.40;90.90
10802;DHT22;5453;50.852;7.102;2023-05-16T08:14:40;17.60;91.70
10802;DHT22;5453;50.852;7.102;2023-05-16T08:17:12;17.90;90.30
10802;DHT22;5453;50.852;7.102;2023-05-16T08:19:45;18.30;89.80
10802;DHT22;5453;50.852;7.102;2023-05-16T08:22:17;19.10;91.80
10802;DHT22;5453;50.852;7.102;2023-05-16T08:24:49;19.90;86.20
10802;DHT22;5453;50.852;7.102;2023-05-16T08:27:21;20.40;88.10
10802;DHT22;5453;50.852;7.102;2023-05-16T08:29:53;20.50;82.90
10802;DHT22;5453;50.852;7.102;2023-05-16T08:32:25;20.30;78.20
10802;DHT22;5453;50.852;7.102;2023-05-16T08:34:59;20.10;78.90
10802;DHT22;5453;50.852;7.102;2023-05-16T08:37:31;20.40;74.70
10802;DHT22;5453;50.852;7.102;2023-05-16T08:42:38;22.20;68.50
10802;DHT22;5453;50.852;7.102;2023-05-16T08:45:10;22.40;65.60
10802;DHT22;5453;50.852;7.102;2023-05-16T08:47:44;22.50;64.80
10802;DHT22;5453;50.852;7.102;2023-05-16T08:50:23;22.60;63.90
10802;DHT22;5453;50.852;7.102;2023-05-16T08:52:56;22.90;63.30
10802;DHT22;5453;50.852;7.102;2023-05-16T08:55:28;23.30;61.70
10802;DHT22;5453;50.852;7.102;2023-05-16T08:58:00;23.20;61.10
10802;DHT22;5453;50.852;7.102;2023-05-16T09:00:33;22.60;61.00
10802;DHT22;5453;50.852;7.102;2023-05-16T09:03:05;21.60;62.50
10802;DHT22;5453;50.852;7.102;2023-05-16T09:05:39;20.60;64.30
10802;DHT22;5453;50.852;7.102;2023-05-16T09:08:12;20.00;66.60
10802;DHT22;5453;50.852;7.102;2023-05-16T09:10:44;19.50;66.30
10802;DHT22;5453;50.852;7.102;2023-05-16T09:13:16;19.20;67.10
10802;DHT22;5453;50.852;7.102;2023-05-16T09:16:12;19.50;68.00
10802;DHT22;5453;50.852;7.102;2023-05-16T09:18:53;20.20;66.40
10802;DHT22;5453;50.852;7.102;2023-05-16T09:21:31;20.60;65.40
10802;DHT22;5453;50.852;7.102;2023-05-16T09:24:04;21.20;65.10
10802;DHT22;5453;50.852;7.102;2023-05-16T09:26:37;21.40;62.70
10802;DHT22;5453;50.852;7.102;2023-05-16T09:29:10;21.30;61.80
10802;DHT22;5453;50.852;7.102;2023-05-16T09:31:42;21.10;62.80
10802;DHT22;5453;50.852;7.102;2023-05-16T09:34:14;20.90;63.10
10802;DHT22;5453;50.852;7.102;2023-05-16T09:36:53;20.50;62.40
10802;DHT22;5453;50.852;7.102;2023-05-16T09:39:26;20.30;63.10
10802;DHT22;5453;50.852;7.102;2023-05-16T09:41:59;20.20;63.20
10802;DHT22;5453;50.852;7.102;2023-05-16T09:44:31;20.30;64.00
10802;DHT22;5453;50.852;7.102;2023-05-16T09:47:03;20.00;64.10
10802;DHT22;5453;50.852;7.102;2023-05-16T09:49:36;19.70;65.20
10802;DHT22;5453;50.852;7.102;2023-05-16T09:52:09;19.60;65.90
10802;DHT22;5453;50.852;7.102;2023-05-16T09:54:42;19.70;64.30
10802;DHT22;5453;50.852;7.102;2023-05-16T09:57:17;19.60;63.40
10802;DHT22;5453;50.852;7.102;2023-05-16T09:59:49;19.50;65.40
10802;DHT22;5453;50.852;7.102;2023-05-16T10:02:22;19.40;65.60
10802;DHT22;5453;50.852;7.102;2023-05-16T10:04:54;19.10;65.10
10802;DHT22;5453;50.852;7.102;2023-05-16T10:07:27;18.70;66.00
10802;DHT22;5453;50.852;7.102;2023-05-16T10:10:05;18.50;69.90
10802;DHT22;5453;50.852;7.102;2023-05-16T10:12:39;18.30;70.40
10802;DHT22;5453;50.852;7.102;2023-05-16T10:15:12;18.30;70.10
10802;DHT22;5453;50.852;7.102;2023-05-16T10:17:49;18.30;70.00
10802;DHT22;5453;50.852;7.102;2023-05-16T10:20:22;18.30;68.80
10802;DHT22;5453;50.852;7.102;2023-05-16T10:22:57;18.20;68.70
10802;DHT22;5453;50.852;7.102;2023-05-16T10:25:33;17.80;71.40
10802;DHT22;5453;50.852;7.102;2023-05-16T10:28:07;17.80;72.40
10802;DHT22;5453;50.852;7.102;2023-05-16T10:30:41;17.80;73.20
10802;DHT22;5453;50.852;7.102;2023-05-16T10:33:15;17.80;71.80
10802;DHT22;5453;50.852;7.102;2023-05-16T10:35:49;18.00;72.10
10802;DHT22;5453;50.852;7.102;2023-05-16T10:38:23;18.10;70.50
10802;DHT22;5453;50.852;7.102;2023-05-16T10:40:57;18.20;71.80
10802;DHT22;5453;50.852;7.102;2023-05-16T10:43:29;18.40;71.30
10802;DHT22;5453;50.852;7.102;2023-05-16T10:46:04;18.50;68.60
10802;DHT22;5453;50.852;7.102;2023-05-16T10:48:39;18.60;68.30
10802;DHT22;5453;50.852;7.102;2023-05-16T10:51:35;18.80;68.50
10802;DHT22;5453;50.852;7.102;2023-05-16T10:54:10;18.90;66.70
10802;DHT22;5453;50.852;7.102;2023-05-16T10:56:54;18.70;67.40
10802;DHT22;5453;50.852;7.102;2023-05-16T10:59:26;18.40;67.60
10802;DHT22;5453;50.852;7.102;2023-05-16T11:01:58;18.40;67.40
10802;DHT22;5453;50.852;7.102;2023-05-16T11:04:44;18.50;67.60
10802;DHT22;5453;50.852;7.102;2023-05-16T11:07:18;18.70;67.50
10802;DHT22;5453;50.852;7.102;2023-05-16T11:10:04;18.70;64.30
10802;DHT22;5453;50.852;7.102;2023-05-16T11:12:41;18.80;65.80
10802;DHT22;5453;50.852;7.102;2023-05-16T11:15:23;18.90;65.50
10802;DHT22;5453;50.852;7.102;2023-05-16T11:18:05;18.90;65.50
10802;DHT22;5453;50.852;7.102;2023-05-16T11:20:39;18.70;65.40
10802;DHT22;5453;50.852;7.102;2023-05-16T11:23:24;18.70;66.20
10802;DHT22;5453;50.852;7.102;2023-05-16T11:25:58;18.70;64.20
10802;DHT22;5453;50.852;7.102;2023-05-16T11:28:31;18.80;65.00
10802;DHT22;5453;50.852;7.102;2023-05-16T11:31:04;18.70;62.50
10802;DHT22;5453;50.852;7.102;2023-05-16T11:33:38;18.70;64.10
10802;DHT22;5453;50.852;7.102;2023-05-16T11:36:11;18.50;64.30
10802;DHT22;5453;50.852;7.102;2023-05-16T11:38:44;18.30;64.00
10802;DHT22;5453;50.852;7.102;2023-05-16T11:41:17;18.20;64.10
10802;DHT22;5453;50.852;7.102;2023-05-16T11:43:51;18.00;64.50
10802;DHT22;5453;50.852;7.102;2023-05-16T11:46:23;17.90;66.60
10802;DHT22;5453;50.852;7.102;2023-05-16T11:48:55;18.10;71.40
10802;DHT22;5453;50.852;7.102;2023-05-16T11:51:27;18.40;71.10
10802;DHT22;5453;50.852;7.102;2023-05-16T11:54:01;18.70;69.10
10802;DHT22;5453;50.852;7.102;2023-05-16T11:56:36;18.90;67.50
10802;DHT22;5453;50.852;7.102;2023-05-16T11:59:09;19.10;67.70
10802;DHT22;5453;50.852;7.102;2023-05-16T12:01:42;18.90;65.70
10802;DHT22;5453;50.852;7.102;2023-05-16T12:04:15;18.60;64.50
10802;DHT22;5453;50.852;7.102;2023-05-16T12:07:00;18.30;65.50
10802;DHT22;5453;50.852;7.102;2023-05-16T12:09:32;18.00;66.40
10802;DHT22;5453;50.852;7.102;2023-05-16T12:12:06;17.60;67.20
10802;DHT22;5453;50.852;7.102;2023-05-16T12:14:39;17.30;67.60
10802;DHT22;5453;50.852;7.102;2023-05-16T12:17:11;17.00;68.70
10802;DHT22;5453;50.852;7.102;2023-05-16T12:19:43;16.80;69.90
10802;DHT22;5453;50.852;7.102;2023-05-16T12:22:16;16.70;71.20
10802;DHT22;5453;50.852;7.102;2023-05-16T12:24:48;16.70;72.50
10802;DHT22;5453;50.852;7.102;2023-05-16T12:27:23;17.00;73.50
10802;DHT22;5453;50.852;7.102;2023-05-16T12:29:57;17.30;73.30
10802;DHT22;5453;50.852;7.102;2023-05-16T12:32:29;17.50;71.80
10802;DHT22;5453;50.852;7.102;2023-05-16T12:35:01;17.70;71.50
10802;DHT22;5453;50.852;7.102;2023-05-16T12:37:33;17.90;71.70
10802;DHT22;5453;50.852;7.102;2023-05-16T12:40:08;18.00;71.40
10802;DHT22;5453;50.852;7.102;2023-05-16T12:42:44;18.20;71.70
10802;DHT22;5453;50.852;7.102;2023-05-16T12:45:16;18.40;74.20
10802;DHT22;5453;50.852;7.102;2023-05-16T12:47:49;18.70;74.30
10802;DHT22;5453;50.852;7.102;2023-05-16T12:50:21;18.90;73.00
10802;DHT22;5453;50.852;7.102;2023-05-16T12:52:57;19.00;72.10
10802;DHT22;5453;50.852;7.102;2023-05-16T12:55:30;19.10;70.80
10802;DHT22;5453;50.852;7.102;2023-05-16T12:58:03;19.00;71.40
10802;DHT22;5453;50.852;7.102;2023-05-16T13:00:36;19.00;70.60
10802;DHT22;5453;50.852;7.102;2023-05-16T13:03:08;19.00;71.60
10802;DHT22;5453;50.852;7.102;2023-05-16T13:05:41;19.10;70.60
10802;DHT22;5453;50.852;7.102;2023-05-16T13:08:14;19.10;69.00
10802;DHT22;5453;50.852;7.102;2023-05-16T13:10:46;18.90;69.70
10802;DHT22;5453;50.852;7.102;2023-05-16T13:13:19;18.80;70.70
10802;DHT22;5453;50.852;7.102;2023-05-16T13:15:51;18.50;71.60
10802;DHT22;5453;50.852;7.102;2023-05-16T13:18:23;18.30;71.90
10802;DHT22;5453;50.852;7.102;2023-05-16T13:20:56;17.90;69.00
10802;DHT22;5453;50.852;7.102;2023-05-16T13:23:28;17.50;70.30
10802;DHT22;5453;50.852;7.102;2023-05-16T13:26:00;17.30;71.70
10802;DHT22;5453;50.852;7.102;2023-05-16T13:28:34;17.20;74.10
10802;DHT22;5453;50.852;7.102;2023-05-16T13:31:07;17.20;74.20
10802;DHT22;5453;50.852;7.102;2023-05-16T13:33:39;17.30;74.10
10802;DHT22;5453;50.852;7.102;2023-05-16T13:36:11;17.40;74.10
10802;DHT22;5453;50.852;7.102;2023-05-16T13:38:43;17.60;73.70
10802;DHT22;5453;50.852;7.102;2023-05-16T13:41:15;17.50;73.60
10802;DHT22;5453;50.852;7.102;2023-05-16T13:43:48;17.50;73.20
10802;DHT22;5453;50.852;7.102;2023-05-16T13:46:20;17.60;73.70
10802;DHT22;5453;50.852;7.102;2023-05-16T13:48:52;17.50;73.40
10802;DHT22;5453;50.852;7.102;2023-05-16T13:51:24;17.70;77.00
10802;DHT22;5453;50.852;7.102;2023-05-16T13:53:56;17.90;74.40
10802;DHT22;5453;50.852;7.102;2023-05-16T13:56:29;18.00;73.90
10802;DHT22;5453;50.852;7.102;2023-05-16T13:59:02;18.10;72.70
10802;DHT22;5453;50.852;7.102;2023-05-16T14:01:34;18.20;72.60
10802;DHT22;5453;50.852;7.102;2023-05-16T14:04:06;18.30;72.10
10802;DHT22;5453;50.852;7.102;2023-05-16T14:06:39;18.40;70.70
10802;DHT22;5453;50.852;7.102;2023-05-16T14:09:11;18.40;70.50
10802;DHT22;5453;50.852;7.102;2023-05-16T14:11:44;18.50;69.60
10802;DHT22;5453;50.852;7.102;2023-05-16T14:14:18;18.50;69.40
10802;DHT22;5453;50.852;7.102;2023-05-16T14:16:50;18.40;69.20
10802;DHT22;5453;50.852;7.102;2023-05-16T14:19:22;18.40;69.70
10802;DHT22;5453;50.852;7.102;2023-05-16T14:21:54;18.50;69.90
10802;DHT22;5453;50.852;7.102;2023-05-16T14:24:26;18.50;70.30
10802;DHT22;5453;50.852;7.102;2023-05-16T14:26:58;18.60;70.00
10802;DHT22;5453;50.852;7.102;2023-05-16T14:29:32;18.60;70.10
10802;DHT22;5453;50.852;7.102;2023-05-16T14:32:05;18.50;69.50
10802;DHT22;5453;50.852;7.102;2023-05-16T14:34:37;18.40;69.20
10802;DHT22;5453;50.852;7.102;2023-05-16T14:37:10;18.30;69.30
10802;DHT22;5453;50.852;7.102;2023-05-16T14:39:43;18.10;68.40
10802;DHT22;5453;50.852;7.102;2023-05-16T14:42:16;18.00;70.20
10802;DHT22;5453;50.852;7.102;2023-05-16T14:44:50;18.00;72.50
10802;DHT22;5453;50.852;7.102;2023-05-16T14:47:22;18.00;72.40
10802;DHT22;5453;50.852;7.102;2023-05-16T14:49:54;18.20;71.30
10802;DHT22;5453;50.852;7.102;2023-05-16T14:52:26;18.30;69.20
10802;DHT22;5453;50.852;7.102;2023-05-16T14:54:58;18.50;69.20
10802;DHT22;5453;50.852;7.102;2023-05-16T14:57:31;18.60;68.50
10802;DHT22;5453;50.852;7.102;2023-05-16T15:00:06;18.70;67.60
10802;DHT22;5453;50.852;7.102;2023-05-16T15:02:40;18.60;66.80
10802;DHT22;5453;50.852;7.102;2023-05-16T15:05:12;18.50;66.40
10802;DHT22;5453;50.852;7.102;2023-05-16T15:07:44;18.30;66.10
10802;DHT22;5453;50.852;7.102;2023-05-16T15:10:16;18.10;66.80
10802;DHT22;5453;50.852;7.102;2023-05-16T15:12:48;18.00;67.50
10802;DHT22;5453;50.852;7.102;2023-05-16T15:15:21;17.90;67.50
10802;DHT22;5453;50.852;7.102;2023-05-16T15:17:53;17.90;69.50
10802;DHT22;5453;50.852;7.102;2023-05-16T15:20:48;17.90;70.10
10802;DHT22;5453;50.852;7.102;2023-05-16T15:23:21;18.00;69.80
10802;DHT22;5453;50.852;7.102;2023-05-16T15:25:53;18.00;69.80
10802;DHT22;5453;50.852;7.102;2023-05-16T15:28:25;17.90;69.50
10802;DHT22;5453;50.852;7.102;2023-05-16T15:30:58;17.90;69.70
10802;DHT22;5453;50.852;7.102;2023-05-16T15:33:30;17.80;69.40
10802;DHT22;5453;50.852;7.102;2023-05-16T15:36:03;17.80;69.80
10802;DHT22;5453;50.852;7.102;2023-05-16T15:38:35;17.70;70.00
10802;DHT22;5453;50.852;7.102;2023-05-16T15:41:07;17.70;69.20
10802;DHT22;5453;50.852;7.102;2023-05-16T15:43:40;17.70;68.20
10802;DHT22;5453;50.852;7.102;2023-05-16T15:46:13;17.60;69.40
10802;DHT22;5453;50.852;7.102;2023-05-16T15:48:46;17.60;69.80
10802;DHT22;5453;50.852;7.102;2023-05-16T15:51:18;17.50;69.00
10802;DHT22;5453;50.852;7.102;2023-05-16T15:53:51;17.40;69.10
10802;DHT22;5453;50.852;7.102;2023-05-16T15:56:23;17.30;69.60
10802;DHT22;5453;50.852;7.102;2023-05-16T15:58:55;17.20;70.20
10802;DHT22;5453;50.852;7.102;2023-05-16T16:01:29;17.10;70.10
10802;DHT22;5453;50.852;7.102;2023-05-16T16:04:01;17.10;70.90
10802;DHT22;5453;50.852;7.102;2023-05-16T16:06:33;17.00;71.20
10802;DHT22;5453;50.852;7.102;2023-05-16T16:09:05;17.00;71.40
10802;DHT22;5453;50.852;7.102;2023-05-16T16:11:37;16.90;71.20
10802;DHT22;5453;50.852;7.102;2023-05-16T16:14:09;16.90;71.70
10802;DHT22;5453;50.852;7.102;2023-05-16T16:16:43;16.90;72.40
10802;DHT22;5453;50.852;7.102;2023-05-16T16:19:15;16.80;71.70
10802;DHT22;5453;50.852;7.102;2023-05-16T16:21:47;16.70;72.30
10802;DHT22;5453;50.852;7.102;2023-05-16T16:24:19;16.70;71.40
10802;DHT22;5453;50.852;7.102;2023-05-16T16:26:51;16.70;71.80